sensor_id;sensor_type;location;lat;lon;timestamp;temperature;humidity
7666;DHT22;3875;46.562;4.898;2023-06-22T00:00:42;23.00;86.80
7666;DHT22;3875;46.562;4.898;2023-06-22T00:03:09;23.00;86.70
7666;DHT22;3875;46.562;4.898;2023-06-22T00:05:34;23.10;86.60
7666;DHT22;3875;46.562;4.898;2023-06-22T00:08:03;23.10;86.60
7666;DHT22;3875;46.562;4.898;2023-06-22T00:10:32;23.10;86.80
7666;DHT22;3875;46.562;4.898;2023-06-22T00:12:58;23.00;86.80
7666;DHT22;3875;46.562;4.898;2023-06-22T00:15:24;23.00;86.90
7666;DHT22;3875;46.562;4.898;2023-06-22T00:17:50;23.10;86.80
7666;DHT22;3875;46.562;4.898;2023-06-22T00:20:16;23.10;86.60
7666;DHT22;3875;46.562;4.898;2023-06-22T00:22:43;23.10;86.60
7666;DHT22;3875;46.562;4.898;2023-06-22T00:25:10;23.00;86.90
7666;DHT22;3875;46.562;4.898;2023-06-22T00:27:36;22.90;87.10
7666;DHT22;3875;46.562;4.898;2023-06-22T00:30:02;23.00;87.10
7666;DHT22;3875;46.562;4.898;2023-06-22T00:32:28;23.00;86.90
7666;DHT22;3875;46.562;4.898;2023-06-22T00:34:54;22.90;87.00
7666;DHT22;3875;46.562;4.898;2023-06-22T00:37:20;22.90;87.10
7666;DHT22;3875;46.562;4.898;2023-06-22T00:39:51;22.90;87.00
7666;DHT22;3875;46.562;4.898;2023-06-22T00:42:17;22.80;87.30
7666;DHT22;3875;46.562;4.898;2023-06-22T00:44:42;22.80;87.40
7666;DHT22;3875;46.562;4.898;2023-06-22T00:47:09;22.80;87.60
7666;DHT22;3875;46.562;4.898;2023-06-22T00:49:35;22.80;88.40
7666;DHT22;3875;46.562;4.898;2023-06-22T00:52:01;22.70;88.40
7666;DHT22;3875;46.562;4.898;2023-06-22T00:54:27;22.70;88.40
7666;DHT22;3875;46.562;4.898;2023-06-22T00:56:54;22.80;88.50
7666;DHT22;3875;46.562;4.898;2023-06-22T00:59:22;22.80;88.50
7666;DHT22;3875;46.562;4.898;2023-06-22T01:01:48;22.80;88.50
7666;DHT22;3875;46.562;4.898;2023-06-22T01:04:15;22.80;88.40
7666;DHT22;3875;46.562;4.898;2023-06-22T01:09:46;22.90;88.70
7666;DHT22;3875;46.562;4.898;2023-06-22T01:12:15;22.70;89.30
7666;DHT22;3875;46.562;4.898;2023-06-22T01:15:05;22.70;89.80
7666;DHT22;3875;46.562;4.898;2023-06-22T01:17:33;22.70;89.50
7666;DHT22;3875;46.562;4.898;2023-06-22T01:20:00;22.60;89.80
7666;DHT22;3875;46.562;4.898;2023-06-22T01:22:30;22.60;90.00
7666;DHT22;3875;46.562;4.898;2023-06-22T01:25:09;22.60;89.90
7666;DHT22;3875;46.562;4.898;2023-06-22T01:30:14;22.60;89.80
7666;DHT22;3875;46.562;4.898;2023-06-22T01:32:41;22.50;90.10
7666;DHT22;3875;46.562;4.898;2023-06-22T01:35:08;22.50;90.20
7666;DHT22;3875;46.562;4.898;2023-06-22T01:37:36;22.50;90.20
7666;DHT22;3875;46.562;4.898;2023-06-22T01:40:04;22.50;90.50
7666;DHT22;3875;46.562;4.898;2023-06-22T01:42:31;22.40;90.90
7666;DHT22;3875;46.562;4.898;2023-06-22T01:44:58;22.40;90.90
7666;DHT22;3875;46.562;4.898;2023-06-22T01:47:25;22.40;90.80
7666;DHT22;3875;46.562;4.898;2023-06-22T01:49:51;22.40;90.60
7666;DHT22;3875;46.562;4.898;2023-06-22T01:52:17;22.40;90.90
7666;DHT22;3875;46.562;4.898;2023-06-22T01:54:43;22.40;91.10
7666;DHT22;3875;46.562;4.898;2023-06-22T01:57:09;22.30;90.90
7666;DHT22;3875;46.562;4.898;2023-06-22T01:59:59;22.30;90.70
7666;DHT22;3875;46.562;4.898;2023-06-22T02:02:33;22.40;90.60
7666;DHT22;3875;46.562;4.898;2023-06-22T02:05:12;22.30;90.60
7666;DHT22;3875;46.562;4.898;2023-06-22T02:08:10;22.30;90.80
7666;DHT22;3875;46.562;4.898;2023-06-22T02:10:38;22.30;90.60
7666;DHT22;3875;46.562;4.898;2023-06-22T02:13:10;22.30;90.40
7666;DHT22;3875;46.562;4.898;2023-06-22T02:15:37;22.30;90.40
7666;DHT22;3875;46.562;4.898;2023-06-22T02:18:02;22.30;90.20
7666;DHT22;3875;46.562;4.898;2023-06-22T02:20:29;22.30;90.20
7666;DHT22;3875;46.562;4.898;2023-06-22T02:22:54;22.30;90.10
7666;DHT22;3875;46.562;4.898;2023-06-22T02:25:20;22.30;90.10
7666;DHT22;3875;46.562;4.898;2023-06-22T02:27:46;22.30;90.20
7666;DHT22;3875;46.562;4.898;2023-06-22T02:30:12;22.20;90.00
7666;DHT22;3875;46.562;4.898;2023-06-22T02:32:40;22.20;90.30
7666;DHT22;3875;46.562;4.898;2023-06-22T02:35:09;22.10;90.80
7666;DHT22;3875;46.562;4.898;2023-06-22T02:37:38;22.00;91.00
7666;DHT22;3875;46.562;4.898;2023-06-22T02:40:08;22.10;90.80
7666;DHT22;3875;46.562;4.898;2023-06-22T02:42:35;22.10;90.50
7666;DHT22;3875;46.562;4.898;2023-06-22T02:45:01;22.20;90.30
7666;DHT22;3875;46.562;4.898;2023-06-22T02:47:26;22.20;90.20
7666;DHT22;3875;46.562;4.898;2023-06-22T02:49:52;22.10;90.20
7666;DHT22;3875;46.562;4.898;2023-06-22T02:52:18;22.10;90.10
7666;DHT22;3875;46.562;4.898;2023-06-22T02:54:43;22.10;90.00
7666;DHT22;3875;46.562;4.898;2023-06-22T02:57:11;22.20;90.00
7666;DHT22;3875;46.562;4.898;2023-06-22T02:59:39;22.10;90.10
7666;DHT22;3875;46.562;4.898;2023-06-22T03:02:07;22.10;90.20
7666;DHT22;3875;46.562;4.898;2023-06-22T03:04:34;22.00;90.60
7666;DHT22;3875;46.562;4.898;2023-06-22T03:07:00;22.00;90.60
7666;DHT22;3875;46.562;4.898;2023-06-22T03:09:27;21.90;90.60
7666;DHT22;3875;46.562;4.898;2023-06-22T03:11:56;21.90;90.70
7666;DHT22;3875;46.562;4.898;2023-06-22T03:14:22;22.00;90.50
7666;DHT22;3875;46.562;4.898;2023-06-22T03:16:47;22.00;90.40
7666;DHT22;3875;46.562;4.898;2023-06-22T03:19:13;22.00;90.40
7666;DHT22;3875;46.562;4.898;2023-06-22T03:21:40;22.00;90.40
7666;DHT22;3875;46.562;4.898;2023-06-22T03:24:06;21.90;90.40
7666;DHT22;3875;46.562;4.898;2023-06-22T03:26:32;21.90;90.60
7666;DHT22;3875;46.562;4.898;2023-06-22T03:28:58;21.90;90.60
7666;DHT22;3875;46.562;4.898;2023-06-22T03:31:24;21.90;91.00
7666;DHT22;3875;46.562;4.898;2023-06-22T03:33:50;21.80;91.10
7666;DHT22;3875;46.562;4.898;2023-06-22T03:36:17;21.70;91.70
7666;DHT22;3875;46.562;4.898;2023-06-22T03:38:46;21.50;93.00
7666;DHT22;3875;46.562;4.898;2023-06-22T03:41:12;21.50;92.80
7666;DHT22;3875;46.562;4.898;2023-06-22T03:43:39;21.50;92.60
7666;DHT22;3875;46.562;4.898;2023-06-22T03:46:05;21.50;92.80
7666;DHT22;3875;46.562;4.898;2023-06-22T03:48:31;21.40;93.10
7666;DHT22;3875;46.562;4.898;2023-06-22T03:50:58;21.50;92.80
7666;DHT22;3875;46.562;4.898;2023-06-22T03:53:24;21.40;93.30
7666;DHT22;3875;46.562;4.898;2023-06-22T03:55:51;21.30;93.40
7666;DHT22;3875;46.562;4.898;2023-06-22T03:58:18;21.40;93.40
7666;DHT22;3875;46.562;4.898;2023-06-22T04:00:48;21.30;93.60
7666;DHT22;3875;46.562;4.898;2023-06-22T04:03:15;21.40;93.00
7666;DHT22;3875;46.562;4.898;2023-06-22T04:05:41;21.50;92.70
7666;DHT22;3875;46.562;4.898;2023-06-22T04:08:07;21.50;92.90
7666;DHT22;3875;46.562;4.898;2023-06-22T04:10:33;21.40;93.30
7666;DHT22;3875;46.562;4.898;2023-06-22T04:12:59;21.30;93.60
7666;DHT22;3875;46.562;4.898;2023-06-22T04:15:25;21.30;94.10
7666;DHT22;3875;46.562;4.898;2023-06-22T04:17:50;21.30;93.70
7666;DHT22;3875;46.562;4.898;2023-06-22T04:20:16;21.40;93.70
7666;DHT22;3875;46.562;4.898;2023-06-22T04:22:42;21.50;93.40
7666;DHT22;3875;46.562;4.898;2023-06-22T04:25:08;21.60;93.00
7666;DHT22;3875;46.562;4.898;2023-06-22T04:27:34;21.70;92.70
7666;DHT22;3875;46.562;4.898;2023-06-22T04:30:06;21.60;92.80
7666;DHT22;3875;46.562;4.898;2023-06-22T04:32:35;21.60;93.10
7666;DHT22;3875;46.562;4.898;2023-06-22T04:35:05;21.60;93.00
7666;DHT22;3875;46.562;4.898;2023-06-22T04:37:32;21.60;93.60
7666;DHT22;3875;46.562;4.898;2023-06-22T04:39:58;21.40;94.20
7666;DHT22;3875;46.562;4.898;2023-06-22T04:42:28;21.50;94.10
7666;DHT22;3875;46.562;4.898;2023-06-22T04:44:54;21.60;94.00
7666;DHT22;3875;46.562;4.898;2023-06-22T04:47:20;21.70;93.70
7666;DHT22;3875;46.562;4.898;2023-06-22T04:49:45;21.70;94.00
7666;DHT22;3875;46.562;4.898;2023-06-22T04:52:13;21.70;93.70
7666;DHT22;3875;46.562;4.898;2023-06-22T04:54:40;21.70;93.80
7666;DHT22;3875;46.562;4.898;2023-06-22T04:57:13;21.70;93.70
7666;DHT22;3875;46.562;4.898;2023-06-22T04:59:41;21.80;93.70
7666;DHT22;3875;46.562;4.898;2023-06-22T05:02:07;21.90;93.40
7666;DHT22;3875;46.562;4.898;2023-06-22T05:04:34;22.10;93.00
7666;DHT22;3875;46.562;4.898;2023-06-22T05:07:04;22.30;92.50
7666;DHT22;3875;46.562;4.898;2023-06-22T05:09:30;22.30;92.20
7666;DHT22;3875;46.562;4.898;2023-06-22T05:11:56;22.40;91.90
7666;DHT22;3875;46.562;4.898;2023-06-22T05:14:27;22.50;91.80
7666;DHT22;3875;46.562;4.898;2023-06-22T05:16:53;22.50;91.60
7666;DHT22;3875;46.562;4.898;2023-06-22T05:19:19;22.60;91.40
7666;DHT22;3875;46.562;4.898;2023-06-22T05:21:44;22.60;91.40
7666;DHT22;3875;46.562;4.898;2023-06-22T05:24:11;22.60;91.20
7666;DHT22;3875;46.562;4.898;2023-06-22T05:26:36;22.70;91.20
7666;DHT22;3875;46.562;4.898;2023-06-22T05:29:03;22.70;91.10
7666;DHT22;3875;46.562;4.898;2023-06-22T05:31:29;22.70;91.10
7666;DHT22;3875;46.562;4.898;2023-06-22T05:33:55;22.70;91.00
7666;DHT22;3875;46.562;4.898;2023-06-22T05:36:22;22.70;91.00
7666;DHT22;3875;46.562;4.898;2023-06-22T05:38:52;22.80;91.00
7666;DHT22;3875;46.562;4.898;2023-06-22T05:41:18;22.80;91.00
7666;DHT22;3875;46.562;4.898;2023-06-22T05:43:44;22.80;90.80
7666;DHT22;3875;46.562;4.898;2023-06-22T05:46:10;22.80;90.90
7666;DHT22;3875;46.562;4.898;2023-06-22T05:48:36;22.80;90.90
7666;DHT22;3875;46.562;4.898;2023-06-22T05:51:02;22.80;90.90
7666;DHT22;3875;46.562;4.898;2023-06-22T05:53:28;22.70;91.00
7666;DHT22;3875;46.562;4.898;2023-06-22T05:55:53;22.80;90.90
7666;DHT22;3875;46.562;4.898;2023-06-22T05:58:19;22.80;90.80
7666;DHT22;3875;46.562;4.898;2023-06-22T06:00:45;22.90;90.70
7666;DHT22;3875;46.562;4.898;2023-06-22T06:03:11;22.90;90.70
7666;DHT22;3875;46.562;4.898;2023-06-22T06:05:37;23.00;90.60
7666;DHT22;3875;46.562;4.898;2023-06-22T06:08:05;23.10;90.50
7666;DHT22;3875;46.562;4.898;2023-06-22T06:10:32;23.10;90.50
7666;DHT22;3875;46.562;4.898;2023-06-22T06:12:58;23.20;90.30
7666;DHT22;3875;46.562;4.898;2023-06-22T06:15:24;23.30;90.30
7666;DHT22;3875;46.562;4.898;2023-06-22T06:17:53;23.40;90.20
7666;DHT22;3875;46.562;4.898;2023-06-22T06:20:22;23.30;90.20
7666;DHT22;3875;46.562;4.898;2023-06-22T06:22:48;23.30;90.10
7666;DHT22;3875;46.562;4.898;2023-06-22T06:25:14;23.40;90.10
7666;DHT22;3875;46.562;4.898;2023-06-22T06:27:49;23.40;89.90
7666;DHT22;3875;46.562;4.898;2023-06-22T06:30:16;23.40;89.90
7666;DHT22;3875;46.562;4.898;2023-06-22T06:32:43;23.40;90.00
7666;DHT22;3875;46.562;4.898;2023-06-22T06:35:11;23.40;89.90
7666;DHT22;3875;46.562;4.898;2023-06-22T06:37:39;23.50;89.90
7666;DHT22;3875;46.562;4.898;2023-06-22T06:40:06;23.60;89.80
7666;DHT22;3875;46.562;4.898;2023-06-22T06:42:46;23.70;89.70
7666;DHT22;3875;46.562;4.898;2023-06-22T06:45:14;23.90;89.60
7666;DHT22;3875;46.562;4.898;2023-06-22T06:47:40;24.10;89.40
7666;DHT22;3875;46.562;4.898;2023-06-22T06:50:06;24.30;89.00
7666;DHT22;3875;46.562;4.898;2023-06-22T06:52:32;24.50;88.20
7666;DHT22;3875;46.562;4.898;2023-06-22T06:54:58;24.60;87.50
7666;DHT22;3875;46.562;4.898;2023-06-22T06:57:24;24.60;87.40
7666;DHT22;3875;46.562;4.898;2023-06-22T06:59:56;24.60;87.50
7666;DHT22;3875;46.562;4.898;2023-06-22T07:02:23;24.50;87.80
7666;DHT22;3875;46.562;4.898;2023-06-22T07:04:49;24.50;87.80
7666;DHT22;3875;46.562;4.898;2023-06-22T07:07:15;24.50;88.00
7666;DHT22;3875;46.562;4.898;2023-06-22T07:09:41;24.50;87.90
7666;DHT22;3875;46.562;4.898;2023-06-22T07:12:07;24.60;88.00
7666;DHT22;3875;46.562;4.898;2023-06-22T07:14:33;24.50;87.80
7666;DHT22;3875;46.562;4.898;2023-06-22T07:16:58;24.50;87.80
7666;DHT22;3875;46.562;4.898;2023-06-22T07:19:25;24.40;88.00
7666;DHT22;3875;46.562;4.898;2023-06-22T07:21:52;24.30;88.10
7666;DHT22;3875;46.562;4.898;2023-06-22T07:24:21;24.20;88.50
7666;DHT22;3875;46.562;4.898;2023-06-22T07:26:48;24.10;88.70
7666;DHT22;3875;46.562;4.898;2023-06-22T07:29:19;24.00;88.80
7666;DHT22;3875;46.562;4.898;2023-06-22T07:31:46;24.00;89.00
7666;DHT22;3875;46.562;4.898;2023-06-22T07:34:13;23.90;89.10
7666;DHT22;3875;46.562;4.898;2023-06-22T07:36:39;23.90;89.20
7666;DHT22;3875;46.562;4.898;2023-06-22T07:39:05;23.90;89.40
7666;DHT22;3875;46.562;4.898;2023-06-22T07:41:30;23.90;89.50
7666;DHT22;3875;46.562;4.898;2023-06-22T07:43:56;24.00;89.60
7666;DHT22;3875;46.562;4.898;2023-06-22T07:46:22;24.20;89.40
7666;DHT22;3875;46.562;4.898;2023-06-22T07:48:48;24.40;89.30
7666;DHT22;3875;46.562;4.898;2023-06-22T07:51:14;24.60;88.90
7666;DHT22;3875;46.562;4.898;2023-06-22T07:53:43;24.70;88.50
7666;DHT22;3875;46.562;4.898;2023-06-22T07:56:13;24.70;88.30
7666;DHT22;3875;46.562;4.898;2023-06-22T07:58:39;24.50;88.50
7666;DHT22;3875;46.562;4.898;2023-06-22T08:01:05;24.60;88.30
7666;DHT22;3875;46.562;4.898;2023-06-22T08:03:31;24.70;88.90
7666;DHT22;3875;46.562;4.898;2023-06-22T08:05:57;24.90;88.00
7666;DHT22;3875;46.562;4.898;2023-06-22T08:08:23;25.00;87.70
7666;DHT22;3875;46.562;4.898;2023-06-22T08:10:49;25.10;87.80
7666;DHT22;3875;46.562;4.898;2023-06-22T08:13:15;25.10;87.90
7666;DHT22;3875;46.562;4.898;2023-06-22T08:15:40;25.20;87.60
7666;DHT22;3875;46.562;4.898;2023-06-22T08:18:06;25.30;88.00
7666;DHT22;3875;46.562;4.898;2023-06-22T08:20:32;25.60;86.20
7666;DHT22;3875;46.562;4.898;2023-06-22T08:22:58;26.00;86.20
7666;DHT22;3875;46.562;4.898;2023-06-22T08:25:30;26.40;85.10
7666;DHT22;3875;46.562;4.898;2023-06-22T08:27:56;26.30;84.20
7666;DHT22;3875;46.562;4.898;2023-06-22T08:30:21;26.10;83.30
7666;DHT22;3875;46.562;4.898;2023-06-22T08:32:47;25.90;83.90
7666;DHT22;3875;46.562;4.898;2023-06-22T08:35:13;25.60;84.90
7666;DHT22;3875;46.562;4.898;2023-06-22T08:37:38;25.30;86.30
7666;DHT22;3875;46.562;4.898;2023-06-22T08:40:07;25.20;86.50
7666;DHT22;3875;46.562;4.898;2023-06-22T08:42:33;25.30;86.60
7666;DHT22;3875;46.562;4.898;2023-06-22T08:44:59;25.20;86.40
7666;DHT22;3875;46.562;4.898;2023-06-22T08:47:26;25.10;86.30
7666;DHT22;3875;46.562;4.898;2023-06-22T08:49:52;25.10;86.40
7666;DHT22;3875;46.562;4.898;2023-06-22T08:52:18;25.00;86.40
7666;DHT22;3875;46.562;4.898;2023-06-22T08:54:45;24.90;86.50
7666;DHT22;3875;46.562;4.898;2023-06-22T08:57:11;24.90;86.70
7666;DHT22;3875;46.562;4.898;2023-06-22T08:59:37;24.90;86.70
7666;DHT22;3875;46.562;4.898;2023-06-22T09:02:03;24.80;87.30
7666;DHT22;3875;46.562;4.898;2023-06-22T09:04:28;24.90;87.50
7666;DHT22;3875;46.562;4.898;2023-06-22T09:06:54;25.10;88.20
7666;DHT22;3875;46.562;4.898;2023-06-22T09:09:21;25.30;88.20
7666;DHT22;3875;46.562;4.898;2023-06-22T09:11:47;25.50;86.90
7666;DHT22;3875;46.562;4.898;2023-06-22T09:14:13;25.50;86.50
7666;DHT22;3875;46.562;4.898;2023-06-22T09:16:38;25.40;86.40
7666;DHT22;3875;46.562;4.898;2023-06-22T09:19:04;25.30;87.00
7666;DHT22;3875;46.562;4.898;2023-06-22T09:21:30;25.20;87.40
7666;DHT22;3875;46.562;4.898;2023-06-22T09:23:56;25.20;87.70
7666;DHT22;3875;46.562;4.898;2023-06-22T09:26:22;25.10;88.00
7666;DHT22;3875;46.562;4.898;2023-06-22T09:28:49;25.10;88.10
7666;DHT22;3875;46.562;4.898;2023-06-22T09:31:15;25.00;87.90
7666;DHT22;3875;46.562;4.898;2023-06-22T09:33:42;24.90;87.50
7666;DHT22;3875;46.562;4.898;2023-06-22T09:36:08;24.80;87.50
7666;DHT22;3875;46.562;4.898;2023-06-22T09:38:37;24.70;87.80
7666;DHT22;3875;46.562;4.898;2023-06-22T09:41:03;24.50;88.50
7666;DHT22;3875;46.562;4.898;2023-06-22T09:43:29;24.30;89.00
7666;DHT22;3875;46.562;4.898;2023-06-22T09:45:55;24.30;89.40
7666;DHT22;3875;46.562;4.898;2023-06-22T09:48:20;24.20;89.90
7666;DHT22;3875;46.562;4.898;2023-06-22T09:50:46;24.20;90.20
7666;DHT22;3875;46.562;4.898;2023-06-22T09:53:12;24.20;90.90
7666;DHT22;3875;46.562;4.898;2023-06-22T09:55:37;24.00;91.90
7666;DHT22;3875;46.562;4.898;2023-06-22T09:58:03;23.90;92.10
7666;DHT22;3875;46.562;4.898;2023-06-22T10:00:29;23.80;92.60
7666;DHT22;3875;46.562;4.898;2023-06-22T10:02:54;23.70;92.60
7666;DHT22;3875;46.562;4.898;2023-06-22T10:05:21;23.60;92.60
7666;DHT22;3875;46.562;4.898;2023-06-22T10:07:47;23.60;92.50
7666;DHT22;3875;46.562;4.898;2023-06-22T10:10:13;23.60;92.00
7666;DHT22;3875;46.562;4.898;2023-06-22T10:12:45;23.50;92.00
7666;DHT22;3875;46.562;4.898;2023-06-22T10:15:11;23.50;91.90
7666;DHT22;3875;46.562;4.898;2023-06-22T10:17:37;23.50;91.90
7666;DHT22;3875;46.562;4.898;2023-06-22T10:20:04;23.50;91.80
7666;DHT22;3875;46.562;4.898;2023-06-22T10:22:37;23.50;91.90
7666;DHT22;3875;46.562;4.898;2023-06-22T10:25:03;23.50;92.00
7666;DHT22;3875;46.562;4.898;2023-06-22T10:27:29;23.60;92.30
7666;DHT22;3875;46.562;4.898;2023-06-22T10:29:55;23.80;92.30
7666;DHT22;3875;46.562;4.898;2023-06-22T10:32:20;23.90;92.00
7666;DHT22;3875;46.562;4.898;2023-06-22T10:34:46;24.00;92.10
7666;DHT22;3875;46.562;4.898;2023-06-22T10:37:12;23.90;92.60
7666;DHT22;3875;46.562;4.898;2023-06-22T10:39:37;24.10;92.60
7666;DHT22;3875;46.562;4.898;2023-06-22T10:42:03;24.20;92.30
7666;DHT22;3875;46.562;4.898;2023-06-22T10:44:29;24.40;91.90
7666;DHT22;3875;46.562;4.898;2023-06-22T10:46:54;24.50;91.30
7666;DHT22;3875;46.562;4.898;2023-06-22T10:49:20;24.60;90.90
7666;DHT22;3875;46.562;4.898;2023-06-22T10:51:46;24.60;90.80
7666;DHT22;3875;46.562;4.898;2023-06-22T10:54:12;24.50;90.70
7666;DHT22;3875;46.562;4.898;2023-06-22T10:56:39;24.40;90.80
7666;DHT22;3875;46.562;4.898;2023-06-22T10:59:05;24.30;90.80
7666;DHT22;3875;46.562;4.898;2023-06-22T11:01:31;24.20;91.20
7666;DHT22;3875;46.562;4.898;2023-06-22T11:03:58;24.10;91.40
7666;DHT22;3875;46.562;4.898;2023-06-22T11:06:24;24.10;91.60
7666;DHT22;3875;46.562;4.898;2023-06-22T11:08:50;24.00;92.00
7666;DHT22;3875;46.562;4.898;2023-06-22T11:11:15;23.80;92.30
7666;DHT22;3875;46.562;4.898;2023-06-22T11:13:43;23.80;92.30
7666;DHT22;3875;46.562;4.898;2023-06-22T11:16:10;23.80;92.40
7666;DHT22;3875;46.562;4.898;2023-06-22T11:18:35;23.80;92.40
7666;DHT22;3875;46.562;4.898;2023-06-22T11:21:01;23.80;92.60
7666;DHT22;3875;46.562;4.898;2023-06-22T11:23:27;23.80;92.20
7666;DHT22;3875;46.562;4.898;2023-06-22T11:25:54;23.80;92.30
7666;DHT22;3875;46.562;4.898;2023-06-22T11:28:20;23.80;92.10
7666;DHT22;3875;46.562;4.898;2023-06-22T11:30:45;23.90;92.10
7666;DHT22;3875;46.562;4.898;2023-06-22T11:33:11;23.90;92.10
7666;DHT22;3875;46.562;4.898;2023-06-22T11:35:37;23.90;92.20
7666;DHT22;3875;46.562;4.898;2023-06-22T11:38:02;24.00;92.10
7666;DHT22;3875;46.562;4.898;2023-06-22T11:40:29;24.30;92.00
7666;DHT22;3875;46.562;4.898;2023-06-22T11:42:55;24.60;92.00
7666;DHT22;3875;46.562;4.898;2023-06-22T11:45:21;24.90;91.30
7666;DHT22;3875;46.562;4.898;2023-06-22T11:47:47;25.10;90.90
7666;DHT22;3875;46.562;4.898;2023-06-22T11:50:13;25.30;90.50
7666;DHT22;3875;46.562;4.898;2023-06-22T11:52:39;25.50;90.10
7666;DHT22;3875;46.562;4.898;2023-06-22T11:55:05;25.60;89.10
7666;DHT22;3875;46.562;4.898;2023-06-22T11:57:36;25.90;89.20
7666;DHT22;3875;46.562;4.898;2023-06-22T12:00:04;26.10;88.20
7666;DHT22;3875;46.562;4.898;2023-06-22T12:02:46;26.10;87.30
7666;DHT22;3875;46.562;4.898;2023-06-22T12:05:11;25.90;87.00
7666;DHT22;3875;46.562;4.898;2023-06-22T12:07:37;25.80;87.50
7666;DHT22;3875;46.562;4.898;2023-06-22T12:10:04;25.80;87.90
7666;DHT22;3875;46.562;4.898;2023-06-22T12:12:29;25.70;87.60
7666;DHT22;3875;46.562;4.898;2023-06-22T12:14:55;25.70;87.60
7666;DHT22;3875;46.562;4.898;2023-06-22T12:17:21;25.60;87.60
7666;DHT22;3875;46.562;4.898;2023-06-22T12:19:47;25.60;87.60
7666;DHT22;3875;46.562;4.898;2023-06-22T12:22:12;25.50;87.50
7666;DHT22;3875;46.562;4.898;2023-06-22T12:24:38;25.30;87.80
7666;DHT22;3875;46.562;4.898;2023-06-22T12:27:04;25.10;88.10
7666;DHT22;3875;46.562;4.898;2023-06-22T12:29:30;24.90;88.50
7666;DHT22;3875;46.562;4.898;2023-06-22T12:31:55;24.90;89.00
7666;DHT22;3875;46.562;4.898;2023-06-22T12:34:21;24.80;89.40
7666;DHT22;3875;46.562;4.898;2023-06-22T12:36:47;24.70;89.70
7666;DHT22;3875;46.562;4.898;2023-06-22T12:39:14;24.60;90.10
7666;DHT22;3875;46.562;4.898;2023-06-22T12:41:40;24.60;90.10
7666;DHT22;3875;46.562;4.898;2023-06-22T12:44:05;24.60;90.40
7666;DHT22;3875;46.562;4.898;2023-06-22T12:46:31;24.70;90.30
7666;DHT22;3875;46.562;4.898;2023-06-22T12:49:03;24.80;90.20
7666;DHT22;3875;46.562;4.898;2023-06-22T12:51:30;24.90;90.20
7666;DHT22;3875;46.562;4.898;2023-06-22T12:53:56;25.10;89.80
7666;DHT22;3875;46.562;4.898;2023-06-22T12:56:22;25.30;89.00
7666;DHT22;3875;46.562;4.898;2023-06-22T12:58:48;25.30;88.50
7666;DHT22;3875;46.562;4.898;2023-06-22T13:01:13;25.30;88.50
7666;DHT22;3875;46.562;4.898;2023-06-22T13:03:40;25.40;88.60
7666;DHT22;3875;46.562;4.898;2023-06-22T13:06:05;25.50;88.70
7666;DHT22;3875;46.562;4.898;2023-06-22T13:08:31;25.50;88.90
7666;DHT22;3875;46.562;4.898;2023-06-22T13:10:57;25.50;89.20
7666;DHT22;3875;46.562;4.898;2023-06-22T13:13:25;25.60;89.20
7666;DHT22;3875;46.562;4.898;2023-06-22T13:15:53;25.70;89.40
7666;DHT22;3875;46.562;4.898;2023-06-22T13:18:19;25.90;88.50
7666;DHT22;3875;46.562;4.898;2023-06-22T13:20:45;26.00;88.10
7666;DHT22;3875;46.562;4.898;2023-06-22T13:23:11;26.00;87.90
7666;DHT22;3875;46.562;4.898;2023-06-22T13:25:37;26.10;87.90
7666;DHT22;3875;46.562;4.898;2023-06-22T13:28:03;26.10;87.90
7666;DHT22;3875;46.562;4.898;2023-06-22T13:30:29;26.10;88.00
7666;DHT22;3875;46.562;4.898;2023-06-22T13:32:56;26.10;87.70
7666;DHT22;3875;46.562;4.898;2023-06-22T13:35:21;26.00;87.10
7666;DHT22;3875;46.562;4.898;2023-06-22T13:37:47;25.90;87.30
7666;DHT22;3875;46.562;4.898;2023-06-22T13:40:13;25.90;87.30
7666;DHT22;3875;46.562;4.898;2023-06-22T13:42:38;25.80;87.50
7666;DHT22;3875;46.562;4.898;2023-06-22T13:45:05;25.80;87.30
7666;DHT22;3875;46.562;4.898;2023-06-22T13:47:31;25.80;87.50
7666;DHT22;3875;46.562;4.898;2023-06-22T13:49:58;25.80;87.90
7666;DHT22;3875;46.562;4.898;2023-06-22T13:52:24;25.70;87.80
7666;DHT22;3875;46.562;4.898;2023-06-22T13:54:49;25.60;87.90
7666;DHT22;3875;46.562;4.898;2023-06-22T13:57:15;25.50;88.10
7666;DHT22;3875;46.562;4.898;2023-06-22T13:59:41;25.50;88.50
7666;DHT22;3875;46.562;4.898;2023-06-22T14:02:07;25.50;88.70
7666;DHT22;3875;46.562;4.898;2023-06-22T14:04:32;25.50;88.80
7666;DHT22;3875;46.562;4.898;2023-06-22T14:06:58;25.50;88.90
7666;DHT22;3875;46.562;4.898;2023-06-22T14:09:24;25.50;89.10
7666;DHT22;3875;46.562;4.898;2023-06-22T14:11:50;25.40;89.10
7666;DHT22;3875;46.562;4.898;2023-06-22T14:14:16;25.30;88.90
7666;DHT22;3875;46.562;4.898;2023-06-22T14:16:42;25.20;89.10
7666;DHT22;3875;46.562;4.898;2023-06-22T14:19:07;25.10;89.60
7666;DHT22;3875;46.562;4.898;2023-06-22T14:21:33;25.10;89.90
7666;DHT22;3875;46.562;4.898;2023-06-22T14:23:58;25.00;89.90
7666;DHT22;3875;46.562;4.898;2023-06-22T14:26:24;24.90;90.30
7666;DHT22;3875;46.562;4.898;2023-06-22T14:28:50;24.80;90.30
7666;DHT22;3875;46.562;4.898;2023-06-22T14:31:19;24.70;90.50
7666;DHT22;3875;46.562;4.898;2023-06-22T14:33:49;24.60;90.60
7666;DHT22;3875;46.562;4.898;2023-06-22T14:36:18;24.50;90.80
7666;DHT22;3875;46.562;4.898;2023-06-22T14:38:46;24.40;90.70
7666;DHT22;3875;46.562;4.898;2023-06-22T14:41:12;24.30;90.70
7666;DHT22;3875;46.562;4.898;2023-06-22T14:43:37;24.10;91.00
7666;DHT22;3875;46.562;4.898;2023-06-22T14:46:03;24.00;91.30
7666;DHT22;3875;46.562;4.898;2023-06-22T14:48:29;23.90;91.30
7666;DHT22;3875;46.562;4.898;2023-06-22T14:50:56;23.80;91.50
7666;DHT22;3875;46.562;4.898;2023-06-22T14:53:22;23.70;91.70
7666;DHT22;3875;46.562;4.898;2023-06-22T14:55:48;23.50;91.80
7666;DHT22;3875;46.562;4.898;2023-06-22T14:58:14;23.40;92.20
7666;DHT22;3875;46.562;4.898;2023-06-22T15:00:40;23.40;92.20
7666;DHT22;3875;46.562;4.898;2023-06-22T15:03:05;23.30;92.50
7666;DHT22;3875;46.562;4.898;2023-06-22T15:05:33;23.20;92.70
7666;DHT22;3875;46.562;4.898;2023-06-22T15:07:58;23.10;92.90
7666;DHT22;3875;46.562;4.898;2023-06-22T15:10:24;22.80;92.80
7666;DHT22;3875;46.562;4.898;2023-06-22T15:12:50;22.60;92.80
7666;DHT22;3875;46.562;4.898;2023-06-22T15:15:16;22.50;92.80
7666;DHT22;3875;46.562;4.898;2023-06-22T15:17:41;22.20;93.30
7666;DHT22;3875;46.562;4.898;2023-06-22T15:20:07;22.20;93.60
7666;DHT22;3875;46.562;4.898;2023-06-22T15:22:33;22.00;93.80
7666;DHT22;3875;46.562;4.898;2023-06-22T15:24:59;22.10;94.00
7666;DHT22;3875;46.562;4.898;2023-06-22T15:27:24;22.10;93.70
7666;DHT22;3875;46.562;4.898;2023-06-22T15:29:50;22.00;93.20
7666;DHT22;3875;46.562;4.898;2023-06-22T15:32:16;21.80;92.90
7666;DHT22;3875;46.562;4.898;2023-06-22T15:34:41;21.50;93.40
7666;DHT22;3875;46.562;4.898;2023-06-22T15:37:07;21.40;93.60
7666;DHT22;3875;46.562;4.898;2023-06-22T15:39:33;21.20;93.90
7666;DHT22;3875;46.562;4.898;2023-06-22T15:41:58;21.10;94.10
7666;DHT22;3875;46.562;4.898;2023-06-22T15:44:24;21.00;94.30
7666;DHT22;3875;46.562;4.898;2023-06-22T15:46:50;20.90;94.40
7666;DHT22;3875;46.562;4.898;2023-06-22T15:49:16;20.90;94.10
7666;DHT22;3875;46.562;4.898;2023-06-22T15:51:43;20.80;94.30
7666;DHT22;3875;46.562;4.898;2023-06-22T15:54:09;20.70;94.20
7666;DHT22;3875;46.562;4.898;2023-06-22T15:56:35;20.60;94.50
7666;DHT22;3875;46.562;4.898;2023-06-22T15:59:01;20.50;94.70
7666;DHT22;3875;46.562;4.898;2023-06-22T16:01:27;20.40;95.30
7666;DHT22;3875;46.562;4.898;2023-06-22T16:03:53;20.20;95.60